»·PEaware :: SWA5130 KLAX-KLAS

SWA5130 :: KLAX-KLAS

FLIGHT INFORMATION

Flight Status: Arrived
Operator:
Southwest Airlines
More flights by this operator :: More flights under this callsign
Pilot: Cody B. (17747)
Aircraft: BOEING 737-800
(B738)
More flights by this aircraft type
Origin: KLAX Los Angeles Intl
United States
Destination: KLAS McCarran Intl
United States
More flights between these airports :: More routes between these airports
Route: ORCKA3 MISEN KEPEC6
File this flight plan on PilotEdge
Remarks:
Altitude:
(Current/Filed)
29,000ft
Speed:
(Current/Filed)
447kts
Departed: 24-Jun-18 06:17 PM
Arrived: 24-Jun-18 07:07 PM
Distance/Time
Traveled:
205nm/0:50
Distance/Time
To Go:
Arrived

Flight Plot

Page will automatically refresh every two minutes.

Flight plan parsing failed; only flown route is shown


Map Options




Map Legend


Flown Route
Filed Route
Departure Airport
Arrival Airport
Navaid (VOR, NDB)
Fix

Horizontal Profiles

Position Reports

Time Latitude Longitude Heading Altitude Ground
Speed
24-Jun-18 17:41 33.947888 -118.400699 222 115ft 0kts
24-Jun-18 17:42 33.947888 -118.400699 222 115ft 0kts
24-Jun-18 17:43 33.947888 -118.400699 222 115ft 0kts
24-Jun-18 17:44 33.947888 -118.400699 222 115ft 0kts
24-Jun-18 17:45 33.947888 -118.400699 222 115ft 0kts
24-Jun-18 17:46 33.947888 -118.400699 222 115ft 0kts
24-Jun-18 17:47 33.947888 -118.400699 222 115ft 0kts
24-Jun-18 17:48 33.947888 -118.400699 222 115ft 0kts
24-Jun-18 17:49 33.947888 -118.400699 222 115ft 0kts
24-Jun-18 17:50 33.947888 -118.400699 222 115ft 0kts
24-Jun-18 17:51 33.947888 -118.400699 222 115ft 0kts
24-Jun-18 17:52 33.947888 -118.400699 222 115ft 0kts
24-Jun-18 17:53 33.947888 -118.400699 222 115ft 0kts
24-Jun-18 17:54 33.947888 -118.400699 222 115ft 0kts
24-Jun-18 17:55 33.947888 -118.400699 222 115ft 0kts
24-Jun-18 17:56 33.947888 -118.400699 222 115ft 0kts
24-Jun-18 17:57 33.947888 -118.400699 222 115ft 0kts
24-Jun-18 17:58 33.947888 -118.400699 222 115ft 0kts
24-Jun-18 17:59 33.947888 -118.400699 222 115ft 0kts
24-Jun-18 18:00 33.947888 -118.400699 222 115ft 0kts
24-Jun-18 18:01 33.947888 -118.400699 222 115ft 0kts
24-Jun-18 18:02 33.947888 -118.400699 222 115ft 0kts
24-Jun-18 18:03 33.947888 -118.400699 222 115ft 0kts
24-Jun-18 18:04 33.947888 -118.400699 222 115ft 0kts
24-Jun-18 18:05 33.948045 -118.400518 222 114ft 2kts
24-Jun-18 18:06 33.948038 -118.400017 359 113ft 0kts
24-Jun-18 18:07 33.947965 -118.400029 3 113ft 0kts
24-Jun-18 18:08 33.947965 -118.400029 3 113ft 0kts
24-Jun-18 18:09 33.947990 -118.400028 3 113ft 0kts
24-Jun-18 18:10 33.948076 -118.400027 356 113ft 1kts
24-Jun-18 18:11 33.948558 -118.400431 311 113ft 0kts
24-Jun-18 18:12 33.949082 -118.401219 307 115ft 0kts
24-Jun-18 18:13 33.949280 -118.401498 325 115ft 0kts
24-Jun-18 18:14 33.949280 -118.401498 325 115ft 0kts
24-Jun-18 18:15 33.949280 -118.401498 325 115ft 0kts
24-Jun-18 18:16 33.949808 -118.401760 331 116ft 6kts
24-Jun-18 18:17 33.948640 -118.417189 263 119ft 143kts
24-Jun-18 18:18 33.942118 -118.477146 260 2485ft 194kts
24-Jun-18 18:19 33.934241 -118.540155 259 4401ft 208kts
24-Jun-18 18:20 33.926205 -118.613922 266 5229ft 230kts
24-Jun-18 18:21 33.913923 -118.685478 217 5694ft 232kts
24-Jun-18 18:22 33.865152 -118.660251 92 7943ft 266kts
24-Jun-18 18:23 33.888858 -118.569395 70 10223ft 298kts
24-Jun-18 18:24 33.920091 -118.468942 70 12104ft 336kts
24-Jun-18 18:25 33.966622 -118.370335 55 14490ft 348kts
24-Jun-18 18:26 34.020471 -118.276067 55 16733ft 358kts
24-Jun-18 18:27 34.077081 -118.176642 55 18868ft 367kts
24-Jun-18 18:28 34.134045 -118.076099 55 20797ft 376kts
24-Jun-18 18:29 34.193280 -117.971237 54 22571ft 385kts
24-Jun-18 18:30 34.253614 -117.863912 55 24192ft 393kts
24-Jun-18 18:31 34.315566 -117.753321 55 25647ft 403kts
24-Jun-18 18:32 34.379785 -117.641261 53 26986ft 411kts
24-Jun-18 18:33 34.447242 -117.528464 53 28223ft 419kts
24-Jun-18 18:34 34.516248 -117.412684 53 28963ft 432kts
24-Jun-18 18:35 34.587669 -117.292367 53 28960ft 456kts
24-Jun-18 18:36 34.662846 -117.165231 53 28954ft 468kts
24-Jun-18 18:37 34.738248 -117.037222 53 28953ft 467kts
24-Jun-18 18:38 34.813779 -116.908437 53 28880ft 468kts
24-Jun-18 18:39 34.889247 -116.779326 53 28844ft 468kts
24-Jun-18 18:40 34.963695 -116.649649 54 28844ft 469kts
24-Jun-18 18:41 35.035607 -116.522147 54 26399ft 434kts
24-Jun-18 18:42 35.101352 -116.405028 53 23984ft 411kts
24-Jun-18 18:43 35.175690 -116.309181 44 22500ft 394kts
24-Jun-18 18:44 35.251615 -116.214891 44 21027ft 384kts
24-Jun-18 18:45 35.325451 -116.122398 44 19616ft 377kts
24-Jun-18 18:46 35.397586 -116.031652 44 18235ft 368kts
24-Jun-18 18:47 35.468174 -115.942529 44 17045ft 361kts
24-Jun-18 18:48 35.536915 -115.855434 44 15725ft 353kts
24-Jun-18 18:49 35.604321 -115.769762 44 14410ft 344kts
24-Jun-18 18:50 35.667925 -115.688826 44 13185ft 318kts
24-Jun-18 18:51 35.727343 -115.612742 44 13035ft 306kts
24-Jun-18 18:52 35.786712 -115.541289 76 12682ft 311kts
24-Jun-18 18:53 35.799269 -115.436290 81 11505ft 307kts
24-Jun-18 18:54 35.811406 -115.335163 82 10250ft 292kts
24-Jun-18 18:55 35.823504 -115.239892 82 8819ft 273kts
24-Jun-18 18:56 35.855258 -115.161948 10 7507ft 276kts
24-Jun-18 18:57 35.925109 -115.187874 319 5879ft 272kts
24-Jun-18 18:58 35.984033 -115.226966 27 4700ft 227kts
24-Jun-18 18:59 36.036022 -115.192726 26 3572ft 219kts
24-Jun-18 19:00 36.094646 -115.159555 25 3024ft 230kts
24-Jun-18 19:01 36.150486 -115.143944 323 4148ft 226kts
24-Jun-18 19:02 36.148019 -115.205660 211 4866ft 210kts
24-Jun-18 19:03 36.097023 -115.242546 203 5116ft 205kts
24-Jun-18 19:04 36.045298 -115.259927 167 4470ft 191kts
24-Jun-18 19:05 36.036642 -115.207492 62 3516ft 172kts
24-Jun-18 19:06 36.070889 -115.173258 25 2379ft 155kts
24-Jun-18 19:07 36.093015 -115.160218 25 2112ft 26kts
24-Jun-18 19:08 36.093384 -115.158776 113 2106ft 0kts
24-Jun-18 19:09 36.093292 -115.158525 114 2105ft 6kts
24-Jun-18 19:10 36.091896 -115.155375 164 2098ft 4kts
24-Jun-18 19:11 36.089433 -115.156559 203 2108ft 15kts
24-Jun-18 19:12 36.087078 -115.157869 192 2120ft 2kts
24-Jun-18 19:13 36.085685 -115.157366 155 2122ft 6kts
24-Jun-18 19:14 36.081985 -115.155217 151 2121ft 14kts
24-Jun-18 19:15 36.081142 -115.152224 104 2114ft 13kts
24-Jun-18 19:16 36.080428 -115.148932 155 2102ft 4kts
24-Jun-18 19:17 36.079800 -115.147372 59 2098ft 3kts
24-Jun-18 19:18 36.079923 -115.147119 57 2096ft 0kts
24-Jun-18 19:19 36.079924 -115.147118 57 2096ft 0kts
24-Jun-18 19:20 36.079924 -115.147117 57 2096ft 0kts

Navigation Log

Ident Type
Flight plan parsing failed, navigation log unavailable